createdAt,value
2023-05-06T00:02:38.167Z,14.63
2023-05-06T00:05:41.872Z,13.65
2023-05-06T00:08:45.274Z,13.55
2023-05-06T00:11:47.967Z,14.05
2023-05-06T00:14:50.319Z,12.33
2023-05-06T00:17:52.937Z,12.55
2023-05-06T00:20:56.097Z,15.07
2023-05-06T00:23:58.741Z,13.18
2023-05-06T00:27:01.873Z,15.07
2023-05-06T00:30:05.533Z,12.00
2023-05-06T00:33:08.808Z,15.88
2023-05-06T00:36:11.453Z,18.23
2023-05-06T00:39:14.334Z,13.02
2023-05-06T00:42:17.041Z,13.18
2023-05-06T00:45:19.317Z,14.47
2023-05-06T00:48:22.208Z,13.38
2023-05-06T00:51:25.913Z,12.68
2023-05-06T00:54:29.857Z,12.35
2023-05-06T00:57:32.654Z,15.05
2023-05-06T01:00:35.617Z,11.50
2023-05-06T01:03:38.421Z,12.63
2023-05-06T01:06:49.372Z,12.57
2023-05-06T01:10:10.770Z,14.98
2023-05-06T01:13:16.227Z,15.07
2023-05-06T01:16:23.452Z,12.47
2023-05-06T01:19:43.152Z,13.38
2023-05-06T01:22:45.581Z,11.95
2023-05-06T01:25:48.226Z,10.50
2023-05-06T01:28:52.031Z,12.07
2023-05-06T01:31:59.969Z,13.13
2023-05-06T01:35:24.307Z,12.82
2023-05-06T01:38:48.279Z,16.27
2023-05-06T01:41:51.910Z,12.80
2023-05-06T01:44:57.281Z,13.90
2023-05-06T01:47:59.860Z,13.63
2023-05-06T01:51:03.232Z,12.98
2023-05-06T01:54:05.901Z,12.10
2023-05-06T01:57:08.532Z,14.20
2023-05-06T02:00:11.285Z,14.15
2023-05-06T02:03:14.405Z,11.63
2023-05-06T02:06:17.569Z,12.05
2023-05-06T02:09:20.693Z,11.48
2023-05-06T02:12:25.489Z,12.52
2023-05-06T02:15:29.046Z,11.88
2023-05-06T02:18:32.066Z,12.87
2023-05-06T02:21:34.447Z,13.57
2023-05-06T02:24:37.127Z,13.23
2023-05-06T02:27:39.691Z,16.17
2023-05-06T02:30:42.367Z,11.80
2023-05-06T02:33:45.955Z,11.47
2023-05-06T02:36:48.569Z,14.10
2023-05-06T02:39:50.994Z,18.75
2023-05-06T02:42:53.690Z,14.10
2023-05-06T02:45:56.201Z,11.32
2023-05-06T02:48:58.926Z,11.93
2023-05-06T02:52:01.286Z,10.88
2023-05-06T02:55:04.085Z,12.93
2023-05-06T02:58:06.381Z,14.55
2023-05-06T03:01:09.344Z,14.70
2023-05-06T03:04:11.790Z,12.00
2023-05-06T03:07:14.484Z,11.82
2023-05-06T03:10:16.948Z,13.25
2023-05-06T03:13:19.613Z,13.88
2023-05-06T03:16:22.129Z,13.00
2023-05-06T03:19:25.772Z,10.70
2023-05-06T03:22:28.955Z,13.65
2023-05-06T03:25:32.432Z,13.05
2023-05-06T03:28:35.752Z,11.85
2023-05-06T03:31:39.098Z,15.50
2023-05-06T03:34:41.983Z,12.87
2023-05-06T03:37:45.301Z,13.13
2023-05-06T03:40:47.899Z,12.30
2023-05-06T03:43:50.975Z,13.27
2023-05-06T03:46:53.972Z,12.75
2023-05-06T03:49:57.250Z,15.03
2023-05-06T03:53:00.628Z,12.20
2023-05-06T03:56:03.888Z,13.48
2023-05-06T03:59:06.643Z,15.15
2023-05-06T04:02:09.552Z,14.13
2023-05-06T04:05:12.930Z,13.83
2023-05-06T04:08:17.155Z,11.48
2023-05-06T04:11:20.045Z,15.70
2023-05-06T04:14:22.675Z,14.43
2023-05-06T04:17:26.068Z,14.75
2023-05-06T04:20:29.118Z,15.60
2023-05-06T04:23:32.672Z,13.35
2023-05-06T04:26:35.411Z,13.38
2023-05-06T04:29:38.371Z,13.62
2023-05-06T04:32:40.872Z,14.40
2023-05-06T04:35:53.786Z,13.37
2023-05-06T04:38:57.089Z,12.18
2023-05-06T04:41:59.990Z,13.68
2023-05-06T04:45:03.532Z,12.45
2023-05-06T04:48:09.026Z,13.40
2023-05-06T04:51:11.571Z,14.47
2023-05-06T04:54:14.418Z,14.20
2023-05-06T04:57:17.501Z,16.02
2023-05-06T05:00:20.375Z,12.73
2023-05-06T05:03:23.218Z,10.68
2023-05-06T05:06:28.133Z,12.70
2023-05-06T05:09:31.072Z,14.77
2023-05-06T05:12:33.947Z,16.17
2023-05-06T05:15:38.693Z,15.10
2023-05-06T05:18:42.074Z,11.88
2023-05-06T05:21:45.156Z,14.97
2023-05-06T05:24:48.498Z,14.68
2023-05-06T05:27:52.510Z,15.32
2023-05-06T05:30:55.271Z,13.65
2023-05-06T05:33:58.020Z,13.20
2023-05-06T05:37:01.947Z,14.53
2023-05-06T05:40:05.588Z,15.30
2023-05-06T05:43:09.480Z,11.93
2023-05-06T05:46:12.936Z,14.52
2023-05-06T05:49:15.926Z,13.60
2023-05-06T05:52:18.470Z,15.93
2023-05-06T05:55:21.579Z,13.85
2023-05-06T05:58:24.345Z,15.00
2023-05-06T06:01:27.243Z,11.88
2023-05-06T06:04:30.509Z,13.65
2023-05-06T06:07:33.348Z,15.40
2023-05-06T06:10:36.064Z,15.63
2023-05-06T06:13:39.161Z,15.70
2023-05-06T06:16:42.033Z,14.85
2023-05-06T06:19:47.544Z,13.27
2023-05-06T06:22:50.193Z,15.57
2023-05-06T06:25:52.662Z,19.42
2023-05-06T06:28:55.364Z,15.40
2023-05-06T06:31:58.377Z,12.40
2023-05-06T06:35:01.125Z,17.42
2023-05-06T06:38:03.576Z,11.73
2023-05-06T06:41:06.251Z,12.37
2023-05-06T06:44:08.589Z,11.63
2023-05-06T06:47:11.241Z,12.85
2023-05-06T06:50:13.776Z,15.45
2023-05-06T06:53:16.528Z,17.27
2023-05-06T06:56:19.026Z,12.90
2023-05-06T06:59:21.726Z,15.25
2023-05-06T07:02:24.150Z,10.57
2023-05-06T07:05:29.857Z,15.27
2023-05-06T07:08:32.186Z,14.33
2023-05-06T07:11:34.912Z,15.35
2023-05-06T07:14:37.234Z,14.00
2023-05-06T07:17:39.991Z,16.75
2023-05-06T07:20:42.479Z,15.20
2023-05-06T07:23:45.188Z,12.33
2023-05-06T07:26:47.565Z,14.55
2023-05-06T07:29:50.686Z,12.55
2023-05-06T07:32:53.353Z,12.85
2023-05-06T07:35:56.199Z,13.82
2023-05-06T07:38:58.522Z,14.47
2023-05-06T07:42:02.006Z,15.02
2023-05-06T07:45:05.421Z,17.67
2023-05-06T07:48:08.337Z,12.73
2023-05-06T07:51:11.473Z,14.05
2023-05-06T07:54:14.191Z,14.93
2023-05-06T07:57:17.097Z,13.00
2023-05-06T08:00:19.893Z,15.25
2023-05-06T08:03:22.617Z,14.75
2023-05-06T08:06:25.216Z,13.40
2023-05-06T08:09:27.916Z,13.87
2023-05-06T08:12:30.630Z,15.25
2023-05-06T08:15:33.360Z,12.05
2023-05-06T08:18:35.764Z,14.95
2023-05-06T08:21:38.545Z,13.60
2023-05-06T08:24:40.941Z,14.43
2023-05-06T08:27:43.618Z,16.10
2023-05-06T08:30:48.405Z,14.23
2023-05-06T08:33:53.878Z,15.85
2023-05-06T08:36:56.911Z,13.02
2023-05-06T08:40:00.107Z,13.90
2023-05-06T08:43:04.940Z,14.77
2023-05-06T08:46:07.952Z,15.00
2023-05-06T08:49:11.042Z,19.02
2023-05-06T08:52:13.997Z,19.45
2023-05-06T08:55:17.247Z,15.27
2023-05-06T08:58:21.854Z,15.25
2023-05-06T09:01:28.082Z,16.52
2023-05-06T09:04:31.328Z,16.02
2023-05-06T09:07:33.665Z,15.02
2023-05-06T09:10:46.239Z,15.53
2023-05-06T09:13:48.924Z,20.10
2023-05-06T09:16:53.094Z,13.25
2023-05-06T09:19:59.476Z,15.95
2023-05-06T09:23:02.883Z,16.70
2023-05-06T09:26:05.450Z,15.70
2023-05-06T09:29:08.442Z,14.10
2023-05-06T09:32:14.599Z,15.32
2023-05-06T09:35:17.515Z,15.60
2023-05-06T09:38:20.167Z,18.67
2023-05-06T09:41:25.711Z,13.00
2023-05-06T09:44:29.130Z,15.47
2023-05-06T09:47:35.564Z,15.45
2023-05-06T09:50:38.044Z,11.70
2023-05-06T09:53:41.613Z,13.80
2023-05-06T09:56:44.569Z,13.40
2023-05-06T09:59:47.676Z,12.40
2023-05-06T10:02:50.932Z,11.95
2023-05-06T10:05:57.204Z,12.23
2023-05-06T10:09:00.914Z,11.45
2023-05-06T10:12:04.546Z,11.33
2023-05-06T10:15:08.231Z,10.70
2023-05-06T10:18:11.376Z,15.10
2023-05-06T10:21:19.517Z,11.32
2023-05-06T10:24:33.382Z,10.23
2023-05-06T10:27:40.811Z,12.80
2023-05-06T10:30:45.015Z,11.77
2023-05-06T10:33:54.491Z,9.00
2023-05-06T10:36:58.730Z,8.15
2023-05-06T10:40:04.237Z,12.18
2023-05-06T10:43:32.977Z,9.13
2023-05-06T10:46:59.731Z,10.35
2023-05-06T10:50:37.926Z,9.88
2023-05-06T10:54:02.640Z,8.13
2023-05-06T10:57:09.825Z,8.13
2023-05-06T11:00:13.226Z,10.67
2023-05-06T11:03:18.919Z,8.50
2023-05-06T11:06:39.075Z,8.02
2023-05-06T11:10:14.233Z,7.03
2023-05-06T11:13:24.514Z,9.13
2023-05-06T11:16:47.356Z,10.37
2023-05-06T11:19:49.697Z,8.80
2023-05-06T11:22:54.629Z,11.00
2023-05-06T11:25:58.611Z,9.57
2023-05-06T11:29:04.088Z,8.98
2023-05-06T11:32:22.493Z,8.53
2023-05-06T11:35:26.265Z,10.00
2023-05-06T11:38:44.515Z,9.23
2023-05-06T11:41:47.234Z,7.32
2023-05-06T11:44:49.625Z,7.87
2023-05-06T11:47:54.760Z,7.90
2023-05-06T11:50:57.613Z,12.90
2023-05-06T11:54:10.133Z,8.05
2023-05-06T11:57:13.397Z,9.45
2023-05-06T12:00:16.451Z,6.62
2023-05-06T12:03:20.452Z,6.53
2023-05-06T12:06:34.087Z,8.35
2023-05-06T12:09:43.187Z,9.85
2023-05-06T12:12:45.998Z,8.65
2023-05-06T12:15:50.390Z,7.55
2023-05-06T12:18:54.102Z,9.33
2023-05-06T12:22:13.725Z,9.05
2023-05-06T12:25:16.376Z,10.40
2023-05-06T12:28:20.976Z,7.12
2023-05-06T12:31:24.452Z,7.05
2023-05-06T12:34:40.195Z,7.67
2023-05-06T12:37:42.488Z,8.90
2023-05-06T12:40:53.685Z,8.23
2023-05-06T12:43:56.300Z,10.48
2023-05-06T12:47:23.767Z,8.70
2023-05-06T12:50:43.638Z,8.13
2023-05-06T12:53:46.387Z,17.12
2023-05-06T12:56:48.733Z,9.68
2023-05-06T12:59:51.455Z,7.97
2023-05-06T13:02:53.948Z,8.55
2023-05-06T13:05:56.643Z,10.17
2023-05-06T13:08:59.509Z,9.70
2023-05-06T13:12:03.133Z,11.65
2023-05-06T13:15:06.250Z,9.15
2023-05-06T13:18:09.254Z,8.63
2023-05-06T13:21:13.186Z,7.47
2023-05-06T13:24:17.127Z,8.50
2023-05-06T13:27:19.484Z,6.65
2023-05-06T13:30:22.162Z,7.20
2023-05-06T13:33:24.529Z,7.28
2023-05-06T13:36:27.366Z,7.10
2023-05-06T13:39:29.676Z,9.48
2023-05-06T13:42:32.298Z,10.10
2023-05-06T13:45:34.792Z,11.20
2023-05-06T13:48:37.423Z,12.43
2023-05-06T13:51:39.785Z,9.87
2023-05-06T13:54:42.437Z,9.55
2023-05-06T13:57:44.788Z,10.68
2023-05-06T14:00:48.564Z,8.32
2023-05-06T14:03:51.256Z,9.40
2023-05-06T14:06:53.867Z,8.77
2023-05-06T14:09:56.502Z,10.43
2023-05-06T14:12:59.000Z,9.93
2023-05-06T14:16:01.853Z,8.57
2023-05-06T14:19:05.793Z,8.07
2023-05-06T14:22:08.488Z,10.83
2023-05-06T14:25:11.297Z,13.35
2023-05-06T14:28:15.708Z,9.93
2023-05-06T14:31:18.196Z,9.68
2023-05-06T14:34:20.891Z,12.00
2023-05-06T14:37:23.260Z,9.77
2023-05-06T14:40:26.040Z,11.90
2023-05-06T14:43:28.511Z,12.25
2023-05-06T14:46:32.047Z,9.35
2023-05-06T14:49:34.385Z,13.60
2023-05-06T14:52:38.790Z,12.03
2023-05-06T14:55:42.155Z,11.20
2023-05-06T14:58:44.845Z,13.05
2023-05-06T15:01:47.245Z,10.80
2023-05-06T15:04:49.918Z,11.38
2023-05-06T15:07:52.251Z,10.37
2023-05-06T15:10:55.017Z,10.05
2023-05-06T15:13:57.364Z,11.05
2023-05-06T15:17:00.284Z,12.05
2023-05-06T15:20:04.485Z,12.52
2023-05-06T15:23:07.153Z,15.57
2023-05-06T15:26:09.555Z,14.63
2023-05-06T15:29:12.821Z,12.15
2023-05-06T15:32:15.213Z,14.30
2023-05-06T15:35:17.833Z,12.43
2023-05-06T15:38:20.234Z,11.87
2023-05-06T15:41:26.646Z,15.38
2023-05-06T15:44:29.031Z,12.35
2023-05-06T15:47:31.945Z,13.82
2023-05-06T15:50:36.527Z,13.55
2023-05-06T15:53:40.347Z,15.40
2023-05-06T15:56:42.677Z,14.70
2023-05-06T15:59:45.318Z,11.25
2023-05-06T16:02:47.891Z,13.55
2023-05-06T16:05:53.386Z,12.18
2023-05-06T16:08:55.731Z,12.53
2023-05-06T16:11:58.390Z,13.18
2023-05-06T16:15:01.591Z,12.75
2023-05-06T16:18:04.875Z,16.52
2023-05-06T16:21:07.893Z,14.75
2023-05-06T16:24:11.461Z,15.40
2023-05-06T16:27:14.142Z,14.00
2023-05-06T16:30:17.846Z,11.60
2023-05-06T16:33:20.254Z,14.27
2023-05-06T16:36:22.979Z,12.88
2023-05-06T16:39:25.412Z,13.23
2023-05-06T16:42:28.152Z,13.07
2023-05-06T16:45:30.592Z,11.98
2023-05-06T16:48:33.479Z,12.98
2023-05-06T16:51:36.205Z,14.65
2023-05-06T16:54:39.076Z,12.13
2023-05-06T16:57:41.508Z,10.65
2023-05-06T17:00:44.337Z,12.05
2023-05-06T17:03:46.815Z,15.55
2023-05-06T17:06:49.456Z,10.85
2023-05-06T17:09:51.844Z,12.03
2023-05-06T17:12:54.738Z,14.20
2023-05-06T17:15:57.136Z,13.00
2023-05-06T17:18:59.805Z,14.77
2023-05-06T17:22:02.245Z,11.85
2023-05-06T17:25:05.314Z,13.17
2023-05-06T17:28:07.698Z,14.00
2023-05-06T17:31:10.508Z,13.45
2023-05-06T17:34:12.842Z,13.18
2023-05-06T17:37:15.548Z,15.38
2023-05-06T17:40:18.058Z,14.67
2023-05-06T17:43:23.533Z,14.60
2023-05-06T17:46:26.073Z,11.48
2023-05-06T17:49:28.818Z,13.50
2023-05-06T17:52:31.232Z,14.32
2023-05-06T17:55:33.903Z,14.93
2023-05-06T17:58:36.438Z,14.18
2023-05-06T18:01:39.413Z,14.27
2023-05-06T18:04:45.172Z,14.20
2023-05-06T18:07:47.509Z,13.57
2023-05-06T18:10:50.525Z,15.47
2023-05-06T18:13:53.616Z,16.50
2023-05-06T18:16:57.150Z,14.05
2023-05-06T18:19:59.600Z,13.73
2023-05-06T18:23:19.849Z,14.87
2023-05-06T18:26:44.631Z,15.03
2023-05-06T18:29:48.718Z,18.92
2023-05-06T18:32:52.285Z,17.62
2023-05-06T18:35:56.892Z,14.00
2023-05-06T18:38:59.275Z,12.32
2023-05-06T18:42:02.298Z,13.97
2023-05-06T18:45:07.000Z,17.55
2023-05-06T18:48:10.870Z,13.52
2023-05-06T18:51:15.800Z,13.57
2023-05-06T18:54:22.055Z,12.77
2023-05-06T18:57:26.726Z,11.70
2023-05-06T19:00:29.554Z,15.35
2023-05-06T19:03:33.429Z,17.08
2023-05-06T19:06:39.989Z,16.80
2023-05-06T19:09:43.144Z,13.32
2023-05-06T19:12:45.901Z,17.33
2023-05-06T19:15:54.378Z,17.15
2023-05-06T19:18:58.508Z,15.23
2023-05-06T19:22:02.270Z,16.92
2023-05-06T19:25:05.120Z,15.90
2023-05-06T19:28:07.571Z,22.37
2023-05-06T19:31:11.258Z,22.67
2023-05-06T19:34:13.824Z,17.65
2023-05-06T19:37:16.409Z,15.75
2023-05-06T19:40:19.621Z,11.40
2023-05-06T19:43:23.249Z,12.17
2023-05-06T19:46:25.705Z,12.73
2023-05-06T19:49:30.408Z,10.95
2023-05-06T19:52:34.534Z,12.93
2023-05-06T19:55:37.675Z,17.50
2023-05-06T19:58:40.397Z,13.50
2023-05-06T20:01:43.143Z,12.30
2023-05-06T20:04:55.681Z,15.18
2023-05-06T20:08:02.069Z,14.20
2023-05-06T20:11:05.682Z,12.05
2023-05-06T20:14:08.031Z,10.27
2023-05-06T20:17:10.677Z,13.93
2023-05-06T20:20:13.308Z,11.82
2023-05-06T20:23:15.990Z,13.73
2023-05-06T20:26:18.384Z,13.45
2023-05-06T20:29:21.099Z,14.50
2023-05-06T20:32:23.441Z,11.85
2023-05-06T20:35:27.214Z,12.45
2023-05-06T20:38:30.966Z,11.52
2023-05-06T20:41:33.567Z,13.23
2023-05-06T20:44:36.054Z,11.60
2023-05-06T20:47:38.810Z,13.02
2023-05-06T20:50:41.332Z,13.43
2023-05-06T20:53:46.067Z,10.95
2023-05-06T20:56:48.391Z,10.75
2023-05-06T20:59:52.512Z,15.13
2023-05-06T21:02:55.111Z,15.40
2023-05-06T21:05:57.750Z,14.10
2023-05-06T21:09:00.203Z,14.40
2023-05-06T21:12:05.120Z,17.60
2023-05-06T21:15:08.255Z,14.07
2023-05-06T21:18:11.169Z,13.05
2023-05-06T21:21:13.659Z,18.60
2023-05-06T21:24:16.290Z,14.60
2023-05-06T21:27:18.652Z,13.23
2023-05-06T21:30:22.145Z,12.83
2023-05-06T21:33:24.809Z,17.50
2023-05-06T21:36:27.462Z,14.65
2023-05-06T21:39:29.858Z,15.73
2023-05-06T21:42:32.812Z,13.25
2023-05-06T21:45:36.130Z,13.00
2023-05-06T21:48:38.834Z,13.45
2023-05-06T21:51:41.169Z,14.00
2023-05-06T21:54:46.136Z,13.18
2023-05-06T21:57:48.460Z,16.35
2023-05-06T22:00:52.370Z,12.10
2023-05-06T22:03:55.311Z,12.23
2023-05-06T22:06:57.824Z,13.77
2023-05-06T22:10:00.546Z,11.12
2023-05-06T22:13:03.631Z,12.10
2023-05-06T22:16:08.188Z,10.10
2023-05-06T22:19:10.790Z,11.10
2023-05-06T22:22:13.461Z,10.52
2023-05-06T22:25:15.853Z,11.52
2023-05-06T22:28:19.305Z,10.10
2023-05-06T22:31:22.311Z,9.63
2023-05-06T22:34:24.968Z,10.35
2023-05-06T22:37:27.299Z,9.55
2023-05-06T22:40:29.984Z,10.70
2023-05-06T22:43:32.361Z,10.57
2023-05-06T22:46:35.045Z,9.60
2023-05-06T22:49:38.200Z,10.52
2023-05-06T22:52:41.126Z,10.18
2023-05-06T22:55:43.570Z,13.88
2023-05-06T22:58:46.339Z,10.10
2023-05-06T23:01:48.879Z,10.60
2023-05-06T23:04:51.668Z,10.45
2023-05-06T23:07:54.188Z,11.05
2023-05-06T23:10:56.846Z,10.73
2023-05-06T23:13:59.212Z,11.02
2023-05-06T23:17:01.948Z,10.30
2023-05-06T23:20:04.800Z,10.02
2023-05-06T23:23:10.570Z,9.93
2023-05-06T23:26:13.042Z,12.07
2023-05-06T23:29:15.811Z,9.35
2023-05-06T23:32:18.265Z,8.30
2023-05-06T23:35:20.863Z,11.12
2023-05-06T23:38:23.228Z,10.23
2023-05-06T23:41:25.902Z,8.20
2023-05-06T23:44:28.435Z,8.88
2023-05-06T23:47:31.134Z,7.67
2023-05-06T23:50:33.762Z,9.50
2023-05-06T23:53:36.457Z,7.82
2023-05-06T23:56:38.787Z,8.27
2023-05-06T23:59:41.376Z,11.43
